sensor_id;sensor_type;location;lat;lon;timestamp;P1;durP1;ratioP1;P2;durP2;ratioP2
71878;SDS011;59755;43.834;4.364;2022-08-01T00:00:10;5.10;;;2.35;;
71878;SDS011;59755;43.834;4.364;2022-08-01T00:02:37;6.07;;;2.28;;
71878;SDS011;59755;43.834;4.364;2022-08-01T00:05:04;5.55;;;2.00;;
71878;SDS011;59755;43.834;4.364;2022-08-01T00:07:31;4.90;;;2.40;;
71878;SDS011;59755;43.834;4.364;2022-08-01T00:09:57;4.97;;;2.33;;
71878;SDS011;59755;43.834;4.364;2022-08-01T00:12:23;7.85;;;2.47;;
71878;SDS011;59755;43.834;4.364;2022-08-01T00:14:49;5.60;;;2.30;;
71878;SDS011;59755;43.834;4.364;2022-08-01T00:17:14;5.10;;;2.33;;
71878;SDS011;59755;43.834;4.364;2022-08-01T00:19:40;6.85;;;2.20;;
71878;SDS011;59755;43.834;4.364;2022-08-01T00:22:06;6.72;;;2.20;;
71878;SDS011;59755;43.834;4.364;2022-08-01T00:24:32;5.10;;;2.22;;
71878;SDS011;59755;43.834;4.364;2022-08-01T00:26:58;5.03;;;2.35;;
71878;SDS011;59755;43.834;4.364;2022-08-01T00:29:23;5.45;;;2.25;;
71878;SDS011;59755;43.834;4.364;2022-08-01T00:31:49;5.40;;;2.22;;
71878;SDS011;59755;43.834;4.364;2022-08-01T00:34:15;6.22;;;2.50;;
71878;SDS011;59755;43.834;4.364;2022-08-01T00:36:41;5.50;;;2.20;;
71878;SDS011;59755;43.834;4.364;2022-08-01T00:39:06;5.30;;;2.05;;
71878;SDS011;59755;43.834;4.364;2022-08-01T00:41:32;5.10;;;2.28;;
71878;SDS011;59755;43.834;4.364;2022-08-01T00:43:58;4.88;;;2.38;;
71878;SDS011;59755;43.834;4.364;2022-08-01T00:46:26;6.60;;;2.25;;
71878;SDS011;59755;43.834;4.364;2022-08-01T00:48:52;5.75;;;2.33;;
71878;SDS011;59755;43.834;4.364;2022-08-01T00:51:19;4.82;;;2.20;;
71878;SDS011;59755;43.834;4.364;2022-08-01T00:53:46;6.18;;;2.38;;
71878;SDS011;59755;43.834;4.364;2022-08-01T00:56:11;5.47;;;2.30;;
71878;SDS011;59755;43.834;4.364;2022-08-01T00:58:38;4.70;;;2.15;;
71878;SDS011;59755;43.834;4.364;2022-08-01T01:01:03;4.25;;;2.20;;
71878;SDS011;59755;43.834;4.364;2022-08-01T01:03:29;5.25;;;2.10;;
71878;SDS011;59755;43.834;4.364;2022-08-01T01:11:43;5.50;;;2.10;;
71878;SDS011;59755;43.834;4.364;2022-08-01T01:14:38;4.95;;;2.30;;
71878;SDS011;59755;43.834;4.364;2022-08-01T01:17:20;5.63;;;2.17;;
71878;SDS011;59755;43.834;4.364;2022-08-01T01:19:51;4.30;;;2.10;;
71878;SDS011;59755;43.834;4.364;2022-08-01T01:27:42;4.80;;;2.30;;
71878;SDS011;59755;43.834;4.364;2022-08-01T01:30:16;5.50;;;2.10;;
71878;SDS011;59755;43.834;4.364;2022-08-01T01:32:43;4.60;;;2.08;;
71878;SDS011;59755;43.834;4.364;2022-08-01T01:35:11;4.97;;;2.35;;
71878;SDS011;59755;43.834;4.364;2022-08-01T01:37:38;5.25;;;1.90;;
71878;SDS011;59755;43.834;4.364;2022-08-01T01:40:05;4.70;;;2.20;;
71878;SDS011;59755;43.834;4.364;2022-08-01T01:42:31;5.57;;;2.50;;
71878;SDS011;59755;43.834;4.364;2022-08-01T01:44:58;5.07;;;2.30;;
71878;SDS011;59755;43.834;4.364;2022-08-01T01:47:24;6.57;;;2.40;;
71878;SDS011;59755;43.834;4.364;2022-08-01T01:49:50;5.28;;;2.10;;
71878;SDS011;59755;43.834;4.364;2022-08-01T01:52:18;4.50;;;2.00;;
71878;SDS011;59755;43.834;4.364;2022-08-01T01:54:46;6.32;;;2.30;;
71878;SDS011;59755;43.834;4.364;2022-08-01T01:57:13;5.28;;;2.03;;
71878;SDS011;59755;43.834;4.364;2022-08-01T01:59:40;5.30;;;2.28;;
71878;SDS011;59755;43.834;4.364;2022-08-01T02:02:07;4.55;;;2.10;;
71878;SDS011;59755;43.834;4.364;2022-08-01T02:04:36;5.50;;;2.42;;
71878;SDS011;59755;43.834;4.364;2022-08-01T02:07:03;4.70;;;1.93;;
71878;SDS011;59755;43.834;4.364;2022-08-01T02:09:31;6.15;;;2.30;;
71878;SDS011;59755;43.834;4.364;2022-08-01T02:11:57;5.10;;;2.13;;
71878;SDS011;59755;43.834;4.364;2022-08-01T02:14:24;5.60;;;2.20;;
71878;SDS011;59755;43.834;4.364;2022-08-01T02:16:54;4.80;;;2.10;;
71878;SDS011;59755;43.834;4.364;2022-08-01T02:19:20;5.63;;;2.10;;
71878;SDS011;59755;43.834;4.364;2022-08-01T02:21:56;5.35;;;2.40;;
71878;SDS011;59755;43.834;4.364;2022-08-01T02:27:09;4.53;;;2.05;;
71878;SDS011;59755;43.834;4.364;2022-08-01T02:29:42;4.50;;;2.15;;
71878;SDS011;59755;43.834;4.364;2022-08-01T02:32:14;4.60;;;2.40;;
71878;SDS011;59755;43.834;4.364;2022-08-01T02:34:42;6.43;;;2.10;;
71878;SDS011;59755;43.834;4.364;2022-08-01T02:37:12;4.90;;;2.15;;
71878;SDS011;59755;43.834;4.364;2022-08-01T02:39:38;5.75;;;2.10;;
71878;SDS011;59755;43.834;4.364;2022-08-01T02:42:06;4.60;;;2.40;;
71878;SDS011;59755;43.834;4.364;2022-08-01T02:44:35;6.30;;;2.47;;
71878;SDS011;59755;43.834;4.364;2022-08-01T02:47:03;4.70;;;2.03;;
71878;SDS011;59755;43.834;4.364;2022-08-01T02:49:33;4.30;;;1.90;;
71878;SDS011;59755;43.834;4.364;2022-08-01T02:52:05;6.78;;;2.10;;
71878;SDS011;59755;43.834;4.364;2022-08-01T02:54:32;4.47;;;2.17;;
71878;SDS011;59755;43.834;4.364;2022-08-01T02:56:58;5.57;;;2.30;;
71878;SDS011;59755;43.834;4.364;2022-08-01T02:59:26;5.22;;;2.10;;
71878;SDS011;59755;43.834;4.364;2022-08-01T03:01:56;6.13;;;2.20;;
71878;SDS011;59755;43.834;4.364;2022-08-01T03:04:23;4.95;;;2.33;;
71878;SDS011;59755;43.834;4.364;2022-08-01T03:06:49;4.32;;;1.98;;
71878;SDS011;59755;43.834;4.364;2022-08-01T03:09:16;6.03;;;2.30;;
71878;SDS011;59755;43.834;4.364;2022-08-01T03:11:44;4.57;;;2.00;;
71878;SDS011;59755;43.834;4.364;2022-08-01T03:14:11;6.75;;;2.10;;
71878;SDS011;59755;43.834;4.364;2022-08-01T03:16:38;5.43;;;2.28;;
71878;SDS011;59755;43.834;4.364;2022-08-01T03:19:07;4.82;;;2.63;;
71878;SDS011;59755;43.834;4.364;2022-08-01T03:21:34;6.60;;;2.20;;
71878;SDS011;59755;43.834;4.364;2022-08-01T03:24:02;5.78;;;2.10;;
71878;SDS011;59755;43.834;4.364;2022-08-01T03:26:30;5.50;;;2.30;;
71878;SDS011;59755;43.834;4.364;2022-08-01T03:28:59;4.72;;;2.30;;
71878;SDS011;59755;43.834;4.364;2022-08-01T03:31:27;6.25;;;2.30;;
71878;SDS011;59755;43.834;4.364;2022-08-01T03:33:53;6.32;;;2.53;;
71878;SDS011;59755;43.834;4.364;2022-08-01T03:36:21;4.55;;;2.10;;
71878;SDS011;59755;43.834;4.364;2022-08-01T03:38:48;5.13;;;2.60;;
71878;SDS011;59755;43.834;4.364;2022-08-01T03:41:18;6.45;;;2.17;;
71878;SDS011;59755;43.834;4.364;2022-08-01T03:43:54;5.85;;;2.35;;
71878;SDS011;59755;43.834;4.364;2022-08-01T03:46:22;4.60;;;2.17;;
71878;SDS011;59755;43.834;4.364;2022-08-01T03:48:51;7.05;;;2.45;;
71878;SDS011;59755;43.834;4.364;2022-08-01T03:51:20;5.95;;;2.22;;
71878;SDS011;59755;43.834;4.364;2022-08-01T03:53:47;4.97;;;2.38;;
71878;SDS011;59755;43.834;4.364;2022-08-01T03:56:16;5.25;;;2.00;;
71878;SDS011;59755;43.834;4.364;2022-08-01T03:58:44;4.75;;;2.50;;
71878;SDS011;59755;43.834;4.364;2022-08-01T04:01:10;4.95;;;1.98;;
71878;SDS011;59755;43.834;4.364;2022-08-01T04:03:36;5.72;;;2.10;;
71878;SDS011;59755;43.834;4.364;2022-08-01T04:06:06;4.30;;;2.17;;
71878;SDS011;59755;43.834;4.364;2022-08-01T04:08:38;5.93;;;2.40;;
71878;SDS011;59755;43.834;4.364;2022-08-01T04:11:05;4.90;;;2.50;;
71878;SDS011;59755;43.834;4.364;2022-08-01T04:13:32;5.65;;;2.42;;
71878;SDS011;59755;43.834;4.364;2022-08-01T04:15:58;5.43;;;2.33;;
71878;SDS011;59755;43.834;4.364;2022-08-01T04:18:24;5.68;;;2.60;;
71878;SDS011;59755;43.834;4.364;2022-08-01T04:20:51;7.25;;;2.30;;
71878;SDS011;59755;43.834;4.364;2022-08-01T04:23:17;4.85;;;2.30;;
71878;SDS011;59755;43.834;4.364;2022-08-01T04:25:44;5.45;;;2.50;;
71878;SDS011;59755;43.834;4.364;2022-08-01T04:28:12;6.78;;;2.50;;
71878;SDS011;59755;43.834;4.364;2022-08-01T04:30:42;5.13;;;2.40;;
71878;SDS011;59755;43.834;4.364;2022-08-01T04:33:10;6.07;;;3.05;;
71878;SDS011;59755;43.834;4.364;2022-08-01T04:35:37;5.10;;;2.50;;
71878;SDS011;59755;43.834;4.364;2022-08-01T04:38:05;5.80;;;2.40;;
71878;SDS011;59755;43.834;4.364;2022-08-01T04:40:33;6.10;;;2.40;;
71878;SDS011;59755;43.834;4.364;2022-08-01T04:43:00;6.00;;;2.58;;
71878;SDS011;59755;43.834;4.364;2022-08-01T04:45:27;6.97;;;2.75;;
71878;SDS011;59755;43.834;4.364;2022-08-01T04:47:53;4.90;;;2.35;;
71878;SDS011;59755;43.834;4.364;2022-08-01T04:50:20;5.93;;;2.20;;
71878;SDS011;59755;43.834;4.364;2022-08-01T04:52:47;5.25;;;2.40;;
71878;SDS011;59755;43.834;4.364;2022-08-01T04:55:13;5.15;;;2.20;;
71878;SDS011;59755;43.834;4.364;2022-08-01T04:57:40;6.40;;;2.50;;
71878;SDS011;59755;43.834;4.364;2022-08-01T05:00:08;7.10;;;2.60;;
71878;SDS011;59755;43.834;4.364;2022-08-01T05:02:35;5.85;;;2.53;;
71878;SDS011;59755;43.834;4.364;2022-08-01T05:05:02;4.60;;;2.22;;
71878;SDS011;59755;43.834;4.364;2022-08-01T05:07:28;5.82;;;2.20;;
71878;SDS011;59755;43.834;4.364;2022-08-01T05:09:54;4.65;;;2.10;;
71878;SDS011;59755;43.834;4.364;2022-08-01T05:12:20;8.45;;;2.72;;
71878;SDS011;59755;43.834;4.364;2022-08-01T05:14:46;6.32;;;2.45;;
71878;SDS011;59755;43.834;4.364;2022-08-01T05:17:12;4.82;;;2.47;;
71878;SDS011;59755;43.834;4.364;2022-08-01T05:19:39;5.55;;;2.50;;
71878;SDS011;59755;43.834;4.364;2022-08-01T05:22:06;5.70;;;2.53;;
71878;SDS011;59755;43.834;4.364;2022-08-01T05:24:33;5.43;;;2.50;;
71878;SDS011;59755;43.834;4.364;2022-08-01T05:27:00;5.38;;;2.70;;
71878;SDS011;59755;43.834;4.364;2022-08-01T05:29:26;5.65;;;2.50;;
71878;SDS011;59755;43.834;4.364;2022-08-01T05:31:53;5.55;;;2.50;;
71878;SDS011;59755;43.834;4.364;2022-08-01T05:34:19;5.45;;;2.50;;
71878;SDS011;59755;43.834;4.364;2022-08-01T05:36:45;5.95;;;2.30;;
71878;SDS011;59755;43.834;4.364;2022-08-01T05:39:12;6.43;;;2.72;;
71878;SDS011;59755;43.834;4.364;2022-08-01T05:41:38;4.97;;;2.50;;
71878;SDS011;59755;43.834;4.364;2022-08-01T05:44:04;5.63;;;2.40;;
71878;SDS011;59755;43.834;4.364;2022-08-01T05:46:30;6.25;;;2.80;;
71878;SDS011;59755;43.834;4.364;2022-08-01T05:48:57;6.85;;;2.60;;
71878;SDS011;59755;43.834;4.364;2022-08-01T05:51:23;5.65;;;2.40;;
71878;SDS011;59755;43.834;4.364;2022-08-01T05:53:49;5.50;;;2.30;;
71878;SDS011;59755;43.834;4.364;2022-08-01T05:56:15;5.63;;;2.53;;
71878;SDS011;59755;43.834;4.364;2022-08-01T05:58:42;5.82;;;2.63;;
71878;SDS011;59755;43.834;4.364;2022-08-01T06:01:08;5.57;;;2.50;;
71878;SDS011;59755;43.834;4.364;2022-08-01T06:03:34;4.95;;;2.35;;
71878;SDS011;59755;43.834;4.364;2022-08-01T06:06:00;6.72;;;2.40;;
71878;SDS011;59755;43.834;4.364;2022-08-01T06:08:27;4.80;;;2.38;;
71878;SDS011;59755;43.834;4.364;2022-08-01T06:10:53;5.03;;;2.50;;
71878;SDS011;59755;43.834;4.364;2022-08-01T06:13:19;7.35;;;2.63;;
71878;SDS011;59755;43.834;4.364;2022-08-01T06:15:45;6.10;;;2.80;;
71878;SDS011;59755;43.834;4.364;2022-08-01T06:18:12;4.70;;;2.40;;
71878;SDS011;59755;43.834;4.364;2022-08-01T06:20:38;6.40;;;2.40;;
71878;SDS011;59755;43.834;4.364;2022-08-01T06:23:04;5.00;;;2.47;;
71878;SDS011;59755;43.834;4.364;2022-08-01T06:25:30;6.50;;;2.60;;
71878;SDS011;59755;43.834;4.364;2022-08-01T06:27:56;7.30;;;2.50;;
71878;SDS011;59755;43.834;4.364;2022-08-01T06:30:22;6.22;;;2.60;;
71878;SDS011;59755;43.834;4.364;2022-08-01T06:32:48;5.00;;;2.20;;
71878;SDS011;59755;43.834;4.364;2022-08-01T06:35:15;5.07;;;2.30;;
71878;SDS011;59755;43.834;4.364;2022-08-01T06:37:41;5.25;;;2.40;;
71878;SDS011;59755;43.834;4.364;2022-08-01T06:40:08;6.70;;;2.30;;
71878;SDS011;59755;43.834;4.364;2022-08-01T06:42:35;5.05;;;2.05;;
71878;SDS011;59755;43.834;4.364;2022-08-01T06:45:04;5.07;;;2.50;;
71878;SDS011;59755;43.834;4.364;2022-08-01T06:47:31;5.95;;;2.50;;
71878;SDS011;59755;43.834;4.364;2022-08-01T06:49:57;6.00;;;2.30;;
71878;SDS011;59755;43.834;4.364;2022-08-01T06:52:23;6.13;;;2.60;;
71878;SDS011;59755;43.834;4.364;2022-08-01T06:54:49;5.78;;;2.25;;
71878;SDS011;59755;43.834;4.364;2022-08-01T06:57:15;6.55;;;2.47;;
71878;SDS011;59755;43.834;4.364;2022-08-01T06:59:41;5.00;;;2.00;;
71878;SDS011;59755;43.834;4.364;2022-08-01T07:02:08;4.70;;;2.20;;
71878;SDS011;59755;43.834;4.364;2022-08-01T07:04:34;4.88;;;2.10;;
71878;SDS011;59755;43.834;4.364;2022-08-01T07:07:00;5.32;;;2.30;;
71878;SDS011;59755;43.834;4.364;2022-08-01T07:09:26;5.40;;;2.35;;
71878;SDS011;59755;43.834;4.364;2022-08-01T07:11:52;5.13;;;2.10;;
71878;SDS011;59755;43.834;4.364;2022-08-01T07:14:19;5.28;;;2.30;;
71878;SDS011;59755;43.834;4.364;2022-08-01T07:16:45;4.93;;;2.00;;
71878;SDS011;59755;43.834;4.364;2022-08-01T07:19:11;5.53;;;2.10;;
71878;SDS011;59755;43.834;4.364;2022-08-01T07:21:37;5.05;;;2.10;;
71878;SDS011;59755;43.834;4.364;2022-08-01T07:24:04;5.50;;;2.17;;
71878;SDS011;59755;43.834;4.364;2022-08-01T07:26:30;6.25;;;2.30;;
71878;SDS011;59755;43.834;4.364;2022-08-01T07:28:56;5.63;;;2.47;;
71878;SDS011;59755;43.834;4.364;2022-08-01T07:31:22;4.88;;;2.30;;
71878;SDS011;59755;43.834;4.364;2022-08-01T07:33:48;6.43;;;2.13;;
71878;SDS011;59755;43.834;4.364;2022-08-01T07:36:17;5.60;;;1.90;;
71878;SDS011;59755;43.834;4.364;2022-08-01T07:38:44;5.03;;;2.08;;
71878;SDS011;59755;43.834;4.364;2022-08-01T07:41:10;4.55;;;1.90;;
71878;SDS011;59755;43.834;4.364;2022-08-01T07:43:37;5.57;;;1.90;;
71878;SDS011;59755;43.834;4.364;2022-08-01T07:46:03;8.27;;;2.20;;
71878;SDS011;59755;43.834;4.364;2022-08-01T07:48:29;4.82;;;1.75;;
71878;SDS011;59755;43.834;4.364;2022-08-01T07:50:55;4.53;;;2.00;;
71878;SDS011;59755;43.834;4.364;2022-08-01T07:53:21;4.70;;;1.88;;
71878;SDS011;59755;43.834;4.364;2022-08-01T07:55:47;4.90;;;1.90;;
71878;SDS011;59755;43.834;4.364;2022-08-01T07:58:14;7.40;;;1.85;;
71878;SDS011;59755;43.834;4.364;2022-08-01T08:00:40;4.35;;;1.67;;
71878;SDS011;59755;43.834;4.364;2022-08-01T08:03:06;5.22;;;1.80;;
71878;SDS011;59755;43.834;4.364;2022-08-01T08:05:32;4.35;;;1.75;;
71878;SDS011;59755;43.834;4.364;2022-08-01T08:08:02;6.47;;;1.90;;
71878;SDS011;59755;43.834;4.364;2022-08-01T08:10:28;5.05;;;1.92;;
71878;SDS011;59755;43.834;4.364;2022-08-01T08:12:54;9.00;;;2.25;;
71878;SDS011;59755;43.834;4.364;2022-08-01T08:15:20;4.35;;;1.75;;
71878;SDS011;59755;43.834;4.364;2022-08-01T08:17:46;4.30;;;2.10;;
71878;SDS011;59755;43.834;4.364;2022-08-01T08:20:12;4.60;;;2.03;;
71878;SDS011;59755;43.834;4.364;2022-08-01T08:22:38;4.90;;;1.95;;
71878;SDS011;59755;43.834;4.364;2022-08-01T08:25:05;4.68;;;2.10;;
71878;SDS011;59755;43.834;4.364;2022-08-01T08:27:31;4.90;;;2.05;;
71878;SDS011;59755;43.834;4.364;2022-08-01T08:29:57;6.60;;;2.05;;
71878;SDS011;59755;43.834;4.364;2022-08-01T08:32:23;5.22;;;1.83;;
71878;SDS011;59755;43.834;4.364;2022-08-01T08:34:49;4.68;;;1.88;;
71878;SDS011;59755;43.834;4.364;2022-08-01T08:37:16;6.10;;;1.70;;
71878;SDS011;59755;43.834;4.364;2022-08-01T08:39:42;5.15;;;2.05;;
71878;SDS011;59755;43.834;4.364;2022-08-01T08:42:09;5.32;;;2.13;;
71878;SDS011;59755;43.834;4.364;2022-08-01T08:44:36;5.15;;;2.17;;
71878;SDS011;59755;43.834;4.364;2022-08-01T08:47:03;4.65;;;2.30;;
71878;SDS011;59755;43.834;4.364;2022-08-01T08:49:32;6.25;;;1.90;;
71878;SDS011;59755;43.834;4.364;2022-08-01T08:51:59;4.85;;;1.90;;
71878;SDS011;59755;43.834;4.364;2022-08-01T08:54:25;6.50;;;2.25;;
71878;SDS011;59755;43.834;4.364;2022-08-01T08:56:52;4.35;;;2.03;;
71878;SDS011;59755;43.834;4.364;2022-08-01T08:59:19;4.18;;;1.77;;
71878;SDS011;59755;43.834;4.364;2022-08-01T09:01:45;4.57;;;1.90;;
71878;SDS011;59755;43.834;4.364;2022-08-01T09:04:11;4.07;;;1.70;;
71878;SDS011;59755;43.834;4.364;2022-08-01T09:06:38;7.30;;;1.80;;
71878;SDS011;59755;43.834;4.364;2022-08-01T09:09:05;5.10;;;2.13;;
71878;SDS011;59755;43.834;4.364;2022-08-01T09:11:31;4.28;;;2.00;;
71878;SDS011;59755;43.834;4.364;2022-08-01T09:14:17;5.93;;;1.90;;
71878;SDS011;59755;43.834;4.364;2022-08-01T09:16:58;6.15;;;2.08;;
71878;SDS011;59755;43.834;4.364;2022-08-01T09:19:24;4.60;;;2.10;;
71878;SDS011;59755;43.834;4.364;2022-08-01T09:21:57;4.50;;;2.00;;
71878;SDS011;59755;43.834;4.364;2022-08-01T09:24:24;5.43;;;2.00;;
71878;SDS011;59755;43.834;4.364;2022-08-01T09:26:51;5.38;;;2.28;;
71878;SDS011;59755;43.834;4.364;2022-08-01T09:29:19;4.78;;;1.80;;
71878;SDS011;59755;43.834;4.364;2022-08-01T09:31:45;4.45;;;1.90;;
71878;SDS011;59755;43.834;4.364;2022-08-01T09:34:12;4.13;;;1.92;;
71878;SDS011;59755;43.834;4.364;2022-08-01T09:36:51;4.38;;;2.00;;
71878;SDS011;59755;43.834;4.364;2022-08-01T09:39:18;4.85;;;2.00;;
71878;SDS011;59755;43.834;4.364;2022-08-01T09:41:45;5.35;;;2.20;;
71878;SDS011;59755;43.834;4.364;2022-08-01T09:44:11;5.75;;;2.10;;
71878;SDS011;59755;43.834;4.364;2022-08-01T09:46:53;6.22;;;2.10;;
71878;SDS011;59755;43.834;4.364;2022-08-01T09:49:29;5.28;;;1.90;;
71878;SDS011;59755;43.834;4.364;2022-08-01T09:51:56;4.97;;;1.77;;
71878;SDS011;59755;43.834;4.364;2022-08-01T09:54:32;4.40;;;1.70;;
71878;SDS011;59755;43.834;4.364;2022-08-01T09:57:14;4.45;;;2.00;;
71878;SDS011;59755;43.834;4.364;2022-08-01T09:59:44;4.25;;;1.63;;
71878;SDS011;59755;43.834;4.364;2022-08-01T10:02:12;5.07;;;1.77;;
71878;SDS011;59755;43.834;4.364;2022-08-01T10:04:50;4.05;;;1.85;;
71878;SDS011;59755;43.834;4.364;2022-08-01T10:07:16;4.03;;;1.67;;
71878;SDS011;59755;43.834;4.364;2022-08-01T10:09:43;4.20;;;1.83;;
71878;SDS011;59755;43.834;4.364;2022-08-01T10:12:10;4.68;;;2.10;;
71878;SDS011;59755;43.834;4.364;2022-08-01T10:14:37;5.88;;;1.85;;
71878;SDS011;59755;43.834;4.364;2022-08-01T10:17:04;5.28;;;1.80;;
71878;SDS011;59755;43.834;4.364;2022-08-01T10:19:32;4.32;;;1.88;;
71878;SDS011;59755;43.834;4.364;2022-08-01T10:22:01;5.10;;;1.75;;
71878;SDS011;59755;43.834;4.364;2022-08-01T10:24:28;4.30;;;1.70;;
71878;SDS011;59755;43.834;4.364;2022-08-01T10:26:55;5.57;;;1.90;;
71878;SDS011;59755;43.834;4.364;2022-08-01T10:29:24;4.45;;;1.80;;
71878;SDS011;59755;43.834;4.364;2022-08-01T10:31:52;4.38;;;1.75;;
71878;SDS011;59755;43.834;4.364;2022-08-01T10:34:18;4.20;;;1.70;;
71878;SDS011;59755;43.834;4.364;2022-08-01T10:36:45;5.07;;;1.58;;
71878;SDS011;59755;43.834;4.364;2022-08-01T10:39:12;5.88;;;1.90;;
71878;SDS011;59755;43.834;4.364;2022-08-01T10:41:38;4.65;;;1.65;;
71878;SDS011;59755;43.834;4.364;2022-08-01T10:44:06;4.85;;;1.70;;
71878;SDS011;59755;43.834;4.364;2022-08-01T10:46:32;4.75;;;1.60;;
71878;SDS011;59755;43.834;4.364;2022-08-01T10:49:04;4.97;;;1.70;;
71878;SDS011;59755;43.834;4.364;2022-08-01T10:51:34;4.95;;;1.80;;
71878;SDS011;59755;43.834;4.364;2022-08-01T10:54:02;4.80;;;1.90;;
71878;SDS011;59755;43.834;4.364;2022-08-01T10:56:42;3.95;;;1.63;;
71878;SDS011;59755;43.834;4.364;2022-08-01T10:59:08;4.40;;;1.70;;
71878;SDS011;59755;43.834;4.364;2022-08-01T11:01:34;4.47;;;1.70;;
71878;SDS011;59755;43.834;4.364;2022-08-01T11:09:14;4.50;;;1.80;;
71878;SDS011;59755;43.834;4.364;2022-08-01T11:11:57;4.25;;;1.65;;
71878;SDS011;59755;43.834;4.364;2022-08-01T11:14:24;4.68;;;1.70;;
71878;SDS011;59755;43.834;4.364;2022-08-01T11:16:50;4.43;;;1.60;;
71878;SDS011;59755;43.834;4.364;2022-08-01T11:19:16;6.18;;;1.80;;
71878;SDS011;59755;43.834;4.364;2022-08-01T11:27:21;3.75;;;1.63;;
71878;SDS011;59755;43.834;4.364;2022-08-01T11:32:32;4.05;;;1.55;;
71878;SDS011;59755;43.834;4.364;2022-08-01T11:34:58;3.70;;;1.63;;
71878;SDS011;59755;43.834;4.364;2022-08-01T11:42:36;4.07;;;1.50;;
71878;SDS011;59755;43.834;4.364;2022-08-01T11:45:02;4.00;;;1.65;;
71878;SDS011;59755;43.834;4.364;2022-08-01T11:50:33;5.28;;;1.77;;
71878;SDS011;59755;43.834;4.364;2022-08-01T11:53:00;4.40;;;1.80;;
71878;SDS011;59755;43.834;4.364;2022-08-01T11:55:27;4.60;;;1.80;;
71878;SDS011;59755;43.834;4.364;2022-08-01T11:58:06;4.05;;;1.73;;
71878;SDS011;59755;43.834;4.364;2022-08-01T12:00:33;4.47;;;1.60;;
71878;SDS011;59755;43.834;4.364;2022-08-01T12:03:00;4.68;;;1.60;;
71878;SDS011;59755;43.834;4.364;2022-08-01T12:05:28;4.30;;;1.80;;
71878;SDS011;59755;43.834;4.364;2022-08-01T12:07:54;3.40;;;1.60;;
71878;SDS011;59755;43.834;4.364;2022-08-01T12:10:22;4.15;;;1.75;;
71878;SDS011;59755;43.834;4.364;2022-08-01T12:15:14;4.13;;;1.70;;
71878;SDS011;59755;43.834;4.364;2022-08-01T12:17:42;4.60;;;1.92;;
71878;SDS011;59755;43.834;4.364;2022-08-01T12:20:09;4.53;;;1.85;;
71878;SDS011;59755;43.834;4.364;2022-08-01T12:22:35;4.82;;;1.70;;
71878;SDS011;59755;43.834;4.364;2022-08-01T12:25:08;4.00;;;1.70;;
71878;SDS011;59755;43.834;4.364;2022-08-01T12:27:35;4.40;;;1.65;;
71878;SDS011;59755;43.834;4.364;2022-08-01T12:30:02;4.13;;;1.70;;
71878;SDS011;59755;43.834;4.364;2022-08-01T12:32:31;3.17;;;1.60;;
71878;SDS011;59755;43.834;4.364;2022-08-01T12:35:01;3.67;;;1.60;;
71878;SDS011;59755;43.834;4.364;2022-08-01T12:37:28;3.80;;;1.70;;
71878;SDS011;59755;43.834;4.364;2022-08-01T12:39:54;3.78;;;1.60;;
71878;SDS011;59755;43.834;4.364;2022-08-01T12:42:21;4.70;;;1.70;;
71878;SDS011;59755;43.834;4.364;2022-08-01T12:44:48;4.55;;;1.73;;
71878;SDS011;59755;43.834;4.364;2022-08-01T12:47:16;4.30;;;1.67;;
71878;SDS011;59755;43.834;4.364;2022-08-01T12:49:43;4.95;;;1.70;;
71878;SDS011;59755;43.834;4.364;2022-08-01T12:52:09;6.30;;;2.00;;
71878;SDS011;59755;43.834;4.364;2022-08-01T12:57:21;4.47;;;1.80;;
71878;SDS011;59755;43.834;4.364;2022-08-01T12:59:48;3.42;;;1.67;;
71878;SDS011;59755;43.834;4.364;2022-08-01T13:02:14;4.20;;;1.88;;
71878;SDS011;59755;43.834;4.364;2022-08-01T13:04:50;5.53;;;1.70;;
71878;SDS011;59755;43.834;4.364;2022-08-01T13:07:16;4.22;;;1.70;;
71878;SDS011;59755;43.834;4.364;2022-08-01T13:09:49;4.20;;;1.70;;
71878;SDS011;59755;43.834;4.364;2022-08-01T13:12:15;3.13;;;1.50;;
71878;SDS011;59755;43.834;4.364;2022-08-01T13:14:41;4.15;;;1.65;;
71878;SDS011;59755;43.834;4.364;2022-08-01T13:17:07;4.47;;;1.70;;
71878;SDS011;59755;43.834;4.364;2022-08-01T13:19:46;3.85;;;1.60;;
71878;SDS011;59755;43.834;4.364;2022-08-01T13:22:13;4.05;;;1.60;;
71878;SDS011;59755;43.834;4.364;2022-08-01T13:24:39;4.00;;;1.60;;
71878;SDS011;59755;43.834;4.364;2022-08-01T13:27:05;3.75;;;1.60;;
71878;SDS011;59755;43.834;4.364;2022-08-01T13:29:35;4.70;;;1.52;;
71878;SDS011;59755;43.834;4.364;2022-08-01T13:34:38;6.40;;;1.73;;
71878;SDS011;59755;43.834;4.364;2022-08-01T13:37:04;3.95;;;1.60;;
71878;SDS011;59755;43.834;4.364;2022-08-01T13:39:30;3.80;;;1.55;;
71878;SDS011;59755;43.834;4.364;2022-08-01T13:42:06;4.28;;;1.60;;
71878;SDS011;59755;43.834;4.364;2022-08-01T13:44:32;3.70;;;1.60;;
71878;SDS011;59755;43.834;4.364;2022-08-01T13:46:58;4.43;;;1.50;;
71878;SDS011;59755;43.834;4.364;2022-08-01T13:49:25;3.08;;;1.50;;
71878;SDS011;59755;43.834;4.364;2022-08-01T13:51:51;4.43;;;1.48;;
71878;SDS011;59755;43.834;4.364;2022-08-01T13:54:17;3.00;;;1.30;;
71878;SDS011;59755;43.834;4.364;2022-08-01T13:56:43;3.38;;;1.40;;
71878;SDS011;59755;43.834;4.364;2022-08-01T13:59:09;4.32;;;1.50;;
71878;SDS011;59755;43.834;4.364;2022-08-01T14:01:35;3.72;;;1.40;;
71878;SDS011;59755;43.834;4.364;2022-08-01T14:04:01;3.60;;;1.38;;
71878;SDS011;59755;43.834;4.364;2022-08-01T14:06:28;2.80;;;1.30;;
71878;SDS011;59755;43.834;4.364;2022-08-01T14:08:54;3.53;;;1.30;;
71878;SDS011;59755;43.834;4.364;2022-08-01T14:11:20;3.03;;;1.35;;
71878;SDS011;59755;43.834;4.364;2022-08-01T14:13:46;2.95;;;1.33;;
71878;SDS011;59755;43.834;4.364;2022-08-01T14:16:12;4.03;;;1.30;;
71878;SDS011;59755;43.834;4.364;2022-08-01T14:18:38;4.60;;;1.30;;
71878;SDS011;59755;43.834;4.364;2022-08-01T14:21:05;5.38;;;1.30;;
71878;SDS011;59755;43.834;4.364;2022-08-01T14:23:31;2.20;;;1.10;;
71878;SDS011;59755;43.834;4.364;2022-08-01T14:25:57;2.72;;;1.20;;
71878;SDS011;59755;43.834;4.364;2022-08-01T14:28:23;2.80;;;1.30;;
71878;SDS011;59755;43.834;4.364;2022-08-01T14:30:52;2.17;;;1.08;;
71878;SDS011;59755;43.834;4.364;2022-08-01T14:33:20;2.90;;;1.20;;
71878;SDS011;59755;43.834;4.364;2022-08-01T14:35:46;2.30;;;1.08;;
71878;SDS011;59755;43.834;4.364;2022-08-01T14:38:13;2.85;;;1.20;;
71878;SDS011;59755;43.834;4.364;2022-08-01T14:40:39;1.95;;;0.90;;
71878;SDS011;59755;43.834;4.364;2022-08-01T14:43:08;1.85;;;1.00;;
71878;SDS011;59755;43.834;4.364;2022-08-01T14:45:34;2.28;;;1.10;;
71878;SDS011;59755;43.834;4.364;2022-08-01T14:48:00;2.22;;;1.10;;
71878;SDS011;59755;43.834;4.364;2022-08-01T14:50:26;2.05;;;0.90;;
71878;SDS011;59755;43.834;4.364;2022-08-01T14:52:53;2.50;;;1.00;;
71878;SDS011;59755;43.834;4.364;2022-08-01T14:55:19;2.38;;;1.10;;
71878;SDS011;59755;43.834;4.364;2022-08-01T14:57:50;2.97;;;1.20;;
71878;SDS011;59755;43.834;4.364;2022-08-01T15:00:16;1.98;;;0.90;;
71878;SDS011;59755;43.834;4.364;2022-08-01T15:02:43;3.47;;;1.20;;
71878;SDS011;59755;43.834;4.364;2022-08-01T15:05:09;3.03;;;1.10;;
71878;SDS011;59755;43.834;4.364;2022-08-01T15:07:35;2.63;;;1.10;;
71878;SDS011;59755;43.834;4.364;2022-08-01T15:10:02;2.80;;;1.20;;
71878;SDS011;59755;43.834;4.364;2022-08-01T15:12:28;2.97;;;1.10;;
71878;SDS011;59755;43.834;4.364;2022-08-01T15:14:54;3.03;;;1.10;;
71878;SDS011;59755;43.834;4.364;2022-08-01T15:17:22;2.63;;;1.13;;
71878;SDS011;59755;43.834;4.364;2022-08-01T15:19:56;2.95;;;1.10;;
71878;SDS011;59755;43.834;4.364;2022-08-01T15:22:23;2.83;;;1.10;;
71878;SDS011;59755;43.834;4.364;2022-08-01T15:24:50;3.28;;;1.20;;
71878;SDS011;59755;43.834;4.364;2022-08-01T15:27:16;2.53;;;1.00;;
71878;SDS011;59755;43.834;4.364;2022-08-01T15:29:42;2.80;;;1.20;;
71878;SDS011;59755;43.834;4.364;2022-08-01T15:32:08;3.40;;;1.30;;